createdAt,value
2022-11-01T10:11:08.632Z,101518.56
2022-11-01T10:13:46.774Z,101514.91
2022-11-01T10:16:51.757Z,101527.28
2022-11-01T10:19:22.148Z,101520.00
2022-11-01T10:21:56.567Z,101522.53
2022-11-01T10:25:05.199Z,101515.38
2022-11-01T10:27:44.842Z,101525.91
2022-11-01T10:30:18.468Z,101525.06
2022-11-01T10:33:03.975Z,101520.47
2022-11-01T10:35:35.683Z,101523.13
2022-11-01T10:38:38.156Z,101519.50
2022-11-01T10:41:10.276Z,101527.63
2022-11-01T10:43:45.784Z,101524.97
2022-11-01T10:46:18.618Z,101518.06
2022-11-01T10:48:54.867Z,101511.00
2022-11-01T10:51:27.784Z,101504.22
2022-11-01T10:54:00.926Z,101508.34
2022-11-01T10:56:41.935Z,101518.78
2022-11-01T10:59:33.687Z,101508.81
2022-11-01T11:02:05.789Z,101512.22
2022-11-01T11:04:34.619Z,101511.22
2022-11-01T11:07:03.373Z,101502.50
2022-11-01T11:09:38.798Z,101502.50
2022-11-01T11:12:17.000Z,101503.09
2022-11-01T11:14:49.522Z,101495.91
2022-11-01T11:17:29.204Z,101493.53
2022-11-01T11:20:05.254Z,101490.00
2022-11-01T11:22:41.858Z,101488.19
2022-11-01T11:25:19.893Z,101486.34
2022-11-01T11:27:50.613Z,101481.59
2022-11-01T11:30:33.611Z,101481.59
2022-11-01T11:33:02.723Z,101478.09
2022-11-01T11:35:32.993Z,101488.91
2022-11-01T11:38:05.443Z,101478.97
2022-11-01T11:40:43.569Z,101490.75
2022-11-01T11:43:37.532Z,101493.69
2022-11-01T11:46:14.093Z,101485.28
2022-11-01T11:49:07.349Z,101487.50
2022-11-01T11:51:38.302Z,101493.31
2022-11-01T11:54:29.329Z,101500.59
2022-11-01T11:57:18.442Z,101495.38
2022-11-01T11:59:59.485Z,101487.97
2022-11-01T12:02:34.964Z,101477.16
2022-11-01T12:05:16.713Z,101484.31
2022-11-01T12:07:50.664Z,101490.66
2022-11-01T12:10:38.072Z,101477.41
2022-11-01T12:13:39.204Z,101479.22
2022-11-01T12:16:15.068Z,101483.97
2022-11-01T12:19:00.059Z,101477.75
2022-11-01T12:21:36.839Z,101474.13
2022-11-01T12:24:24.217Z,101462.47
2022-11-01T12:26:56.203Z,101452.53
2022-11-01T12:29:36.013Z,101447.91
2022-11-01T12:32:21.134Z,101436.94
2022-11-01T12:34:50.266Z,101446.91
2022-11-01T12:37:27.145Z,101436.22
2022-11-01T12:40:26.803Z,101430.91
2022-11-01T12:43:31.105Z,101425.16
2022-11-01T12:46:40.078Z,101424.81
2022-11-01T12:49:29.714Z,101416.66
2022-11-01T12:52:04.354Z,101417.50
2022-11-01T12:54:47.694Z,101418.09
2022-11-01T12:57:18.386Z,101416.16
2022-11-01T12:59:48.495Z,101408.25
2022-11-01T13:02:32.533Z,101412.69
2022-11-01T13:05:23.891Z,101418.03
2022-11-01T13:08:15.144Z,101409.53
2022-11-01T13:10:46.757Z,101405.19
2022-11-01T13:13:50.915Z,101406.75
2022-11-01T13:16:32.535Z,101401.53
2022-11-01T13:19:03.895Z,101398.00
2022-11-01T13:21:59.886Z,101399.13
2022-11-01T13:24:34.094Z,101408.81
2022-11-01T13:27:31.903Z,101413.69
2022-11-01T13:30:11.139Z,101418.56
2022-11-01T13:32:56.205Z,101417.22
2022-11-01T13:35:48.741Z,101431.06
2022-11-01T13:38:53.250Z,101437.84
2022-11-01T13:41:30.377Z,101427.91
2022-11-01T13:44:04.203Z,101435.63
2022-11-01T13:46:40.138Z,101429.44
2022-11-01T13:49:20.022Z,101428.72
2022-11-01T13:52:00.673Z,101424.13
2022-11-01T13:54:44.798Z,101416.09
2022-11-01T13:57:18.102Z,101413.56
2022-11-01T13:59:57.736Z,101416.22
2022-11-01T14:02:26.537Z,101429.44
2022-11-01T14:04:56.876Z,101426.06
2022-11-01T14:07:26.965Z,101423.28
2022-11-01T14:09:56.815Z,101420.72
2022-11-01T14:12:46.659Z,101425.09
2022-11-01T14:15:25.999Z,101420.97
2022-11-01T14:18:10.763Z,101432.38
2022-11-01T14:20:41.301Z,101428.84
2022-11-01T14:23:28.204Z,101429.69
2022-11-01T14:26:18.924Z,101422.66
2022-11-01T14:28:49.472Z,101427.16
2022-11-01T14:31:20.212Z,101429.69
2022-11-01T14:33:50.432Z,101428.97
2022-11-01T14:36:22.131Z,101427.16
2022-11-01T14:39:07.452Z,101434.19
2022-11-01T14:41:38.570Z,101421.84
2022-11-01T14:44:12.503Z,101423.50
2022-11-01T14:46:46.726Z,101420.97
2022-11-01T14:49:22.216Z,101421.69
2022-11-01T14:52:06.070Z,101426.06
2022-11-01T14:54:36.467Z,101418.78
2022-11-01T14:57:26.126Z,101417.09
2022-11-01T14:59:55.617Z,101413.56
2022-11-01T15:02:26.347Z,101407.84
2022-11-01T15:04:59.617Z,101406.03
2022-11-01T15:07:31.199Z,101401.78
2022-11-01T15:10:04.256Z,101402.50
2022-11-01T15:12:36.204Z,101407.59
2022-11-01T15:15:05.425Z,101414.25
2022-11-01T15:17:35.055Z,101411.56
2022-11-01T15:20:09.156Z,101414.13
2022-11-01T15:22:38.409Z,101414.84
2022-11-01T15:25:07.515Z,101410.34
2022-11-01T15:27:42.423Z,101413.84
2022-11-01T15:30:26.611Z,101415.22
2022-11-01T15:33:25.151Z,101425.31
2022-11-01T15:35:59.701Z,101430.50
2022-11-01T15:38:29.448Z,101429.78
2022-11-01T15:40:58.267Z,101438.78
2022-11-01T15:43:28.140Z,101439.63
2022-11-01T15:46:00.978Z,101445.09
2022-11-01T15:48:38.392Z,101439.63
2022-11-01T15:51:09.856Z,101444.25
2022-11-01T15:53:38.967Z,101456.38
2022-11-01T15:56:32.981Z,101461.25
2022-11-01T15:59:02.249Z,101471.47
2022-11-01T16:01:31.520Z,101469.88
2022-11-01T16:04:02.079Z,101471.47
2022-11-01T16:06:42.967Z,101474.97
2022-11-01T16:09:27.157Z,101476.56
2022-11-01T16:12:00.570Z,101472.06
2022-11-01T16:14:37.889Z,101468.53
2022-11-01T16:17:20.707Z,101467.56
2022-11-01T16:19:51.777Z,101471.06
2022-11-01T16:22:37.142Z,101473.88
2022-11-01T16:25:15.616Z,101481.75
2022-11-01T16:28:26.831Z,101485.41
2022-11-01T16:30:56.748Z,101493.53
2022-11-01T16:33:35.759Z,101494.66
2022-11-01T16:36:20.892Z,101511.50
2022-11-01T16:38:52.197Z,101508.84
2022-11-01T16:41:39.672Z,101511.75
2022-11-01T16:44:15.096Z,101523.53
2022-11-01T16:46:45.149Z,101527.75
2022-11-01T16:49:18.746Z,101529.47
2022-11-01T16:51:47.855Z,101536.63
2022-11-01T16:54:16.776Z,101539.31
2022-11-01T16:56:50.896Z,101546.44
2022-11-01T17:03:39.581Z,101540.16
2022-11-01T17:06:08.983Z,101537.38
2022-11-01T17:08:38.411Z,101532.88
2022-11-01T17:11:09.456Z,101536.50
2022-11-01T17:13:38.577Z,101536.63
2022-11-01T17:16:12.846Z,101529.47
2022-11-01T17:18:42.253Z,101527.75
2022-11-01T17:21:12.335Z,101523.41
2022-11-01T17:23:41.787Z,101525.25
2022-11-01T17:26:11.274Z,101528.88
2022-11-01T17:28:40.987Z,101524.38
2022-11-01T17:31:09.998Z,101520.75
2022-11-01T17:33:38.938Z,101516.34
2022-11-01T17:36:11.545Z,101515.41
2022-11-01T17:38:40.902Z,101513.56
2022-11-01T17:41:11.149Z,101517.34
2022-11-01T17:43:40.179Z,101523.53
2022-11-01T17:46:18.258Z,101507.50
2022-11-01T17:48:47.386Z,101500.47
2022-11-01T17:51:17.988Z,101494.16
2022-11-01T17:53:47.217Z,101492.31
2022-11-01T17:56:16.339Z,101488.94
2022-11-01T17:58:51.138Z,101496.00
2022-11-01T18:01:22.693Z,101493.53
2022-11-01T18:03:51.895Z,101487.13
2022-11-01T18:06:21.464Z,101487.22
2022-11-01T18:08:51.565Z,101480.94
2022-11-01T18:11:42.860Z,101489.66
2022-11-01T18:14:14.675Z,101490.66
2022-11-01T18:16:52.703Z,101493.19
2022-11-01T18:19:35.836Z,101497.66
2022-11-01T18:22:07.711Z,101495.22
2022-11-01T18:24:44.176Z,101497.91
2022-11-01T18:27:13.896Z,101488.09
2022-11-01T18:29:43.965Z,101494.28
2022-11-01T18:32:18.195Z,101495.34
2022-11-01T18:34:54.864Z,101501.53
2022-11-01T18:37:38.044Z,101509.66
2022-11-01T18:40:26.790Z,101513.91
2022-11-01T18:42:56.012Z,101511.25
2022-11-01T18:45:31.826Z,101514.88
2022-11-01T18:48:24.817Z,101522.16
2022-11-01T18:51:05.331Z,101511.38
2022-11-01T18:53:35.373Z,101506.88
2022-11-01T18:56:34.212Z,101508.56
2022-11-01T18:59:04.355Z,101508.81
2022-11-01T19:01:33.520Z,101515.13
2022-11-01T19:04:22.410Z,101521.94
2022-11-01T19:06:51.219Z,101527.75
2022-11-01T19:09:29.221Z,101525.94
2022-11-01T19:12:13.790Z,101537.09
2022-11-01T19:14:43.881Z,101534.06
2022-11-01T19:17:35.901Z,101531.13
2022-11-01T19:20:16.022Z,101519.41
2022-11-01T19:22:45.051Z,101522.66
2022-11-01T19:25:33.140Z,101516.84
2022-11-01T19:28:05.405Z,101520.97
2022-11-01T19:30:35.525Z,101523.03
2022-11-01T19:33:19.372Z,101523.75
2022-11-01T19:35:50.102Z,101526.41
2022-11-01T19:38:18.994Z,101519.03
2022-11-01T19:40:53.454Z,101525.09
2022-11-01T19:43:25.785Z,101521.47
2022-11-01T19:45:56.490Z,101519.75
2022-11-01T19:48:30.698Z,101518.78
2022-11-01T19:51:01.632Z,101523.75
2022-11-01T19:53:34.208Z,101527.38
2022-11-01T19:56:05.800Z,101530.66
2022-11-01T19:58:50.837Z,101528.72
2022-11-01T20:01:43.211Z,101530.06
2022-11-01T20:04:16.311Z,101534.41
2022-11-01T20:06:49.893Z,101537.06
2022-11-01T20:09:22.923Z,101528.00
2022-11-01T20:11:52.656Z,101535.88
2022-11-01T20:14:22.671Z,101544.00
2022-11-01T20:16:54.342Z,101536.47
2022-11-01T20:19:48.965Z,101536.25
